Time;durP1;ratioP1;P1;durP2;ratioP2;P2;SDS_P1;SDS_P2;PMS_P1;PMS_P2;Temp;Humidity;BMP_temperature;BMP_pressure;BME280_temperature;BME280_humidity;BME280_pressure;Samples;Min_cycle;Max_cycle;Signal;HPM_P1;HPM_P2
2022/06/18 00:01:38;;;;;;;15.32;5.03;;;;;;;21.86;66.00;101629.00;5054408;28;20037;-63
2022/06/18 00:04:15;;;;;;;15.63;4.97;;;;;;;21.77;65.45;101615.81;5054696;28;20025;-63
2022/06/18 00:06:51;;;;;;;16.25;5.07;;;;;;;21.71;65.96;101624.97;5054780;28;20074;-64
2022/06/18 00:09:21;;;;;;;14.95;5.15;;;;;;;21.60;67.01;101629.78;5054907;28;20032;-63
2022/06/18 00:14:43;;;;;;;15.98;5.32;;;;;;;21.49;69.33;101619.28;5054082;28;20474;-63
2022/06/18 00:17:14;;;;;;;17.13;5.68;;;;;;;21.44;69.22;101617.69;5054746;28;20022;-64
2022/06/18 00:19:40;;;;;;;15.80;5.30;;;;;;;21.39;69.75;101613.31;5054887;28;20033;-63
2022/06/18 00:22:05;;;;;;;15.68;5.25;;;;;;;21.39;69.69;101613.31;5054368;28;20029;-64
2022/06/18 00:24:31;;;;;;;16.40;5.60;;;;;;;21.27;70.79;101615.44;5054412;28;20036;-63
2022/06/18 00:26:56;;;;;;;16.23;5.40;;;;;;;21.32;70.01;101610.81;5054684;28;20594;-63
2022/06/18 00:29:22;;;;;;;15.88;5.50;;;;;;;21.27;70.15;101612.78;5054192;28;20037;-63
2022/06/18 00:31:47;;;;;;;17.50;5.30;;;;;;;21.25;70.93;101610.13;5054431;28;20025;-63
2022/06/18 00:34:15;;;;;;;16.67;5.50;;;;;;;21.21;71.06;101603.94;5054234;28;20031;-63
2022/06/18 00:36:42;;;;;;;16.77;5.45;;;;;;;21.19;71.30;101604.94;5054054;28;20033;-63
2022/06/18 00:39:12;;;;;;;18.30;5.82;;;;;;;21.12;71.85;101614.94;5053061;28;20025;-63
2022/06/18 00:41:40;;;;;;;13.98;5.00;;;;;;;21.11;72.17;101613.19;5054206;28;20071;-63
2022/06/18 00:44:26;;;;;;;16.83;6.00;;;;;;;21.04;72.01;101611.59;5053788;28;20041;-63
2022/06/18 00:47:18;;;;;;;16.23;5.72;;;;;;;21.03;71.61;101604.47;5050293;28;20480;-63
2022/06/18 00:49:51;;;;;;;15.90;5.60;;;;;;;20.92;74.07;101607.44;5053100;28;20480;-63
2022/06/18 00:52:22;;;;;;;16.92;5.50;;;;;;;20.85;74.85;101609.41;5053617;28;20518;-63
2022/06/18 00:55:09;;;;;;;16.25;5.85;;;;;;;20.89;74.22;101608.38;5054061;28;20025;-64
2022/06/18 00:57:47;;;;;;;19.63;6.10;;;;;;;20.83;76.57;101608.56;5051814;28;20487;-64
2022/06/18 01:00:20;;;;;;;18.55;6.22;;;;;;;20.84;77.09;101607.66;5053700;28;20036;-63
2022/06/18 01:02:48;;;;;;;17.55;6.13;;;;;;;20.81;76.47;101609.50;5053529;28;20426;-64
2022/06/18 01:05:21;;;;;;;16.92;5.78;;;;;;;20.76;76.23;101603.41;5053870;28;20025;-63
2022/06/18 01:07:53;;;;;;;16.67;5.90;;;;;;;20.76;77.16;101598.88;5053593;28;20028;-64
2022/06/18 01:10:24;;;;;;;18.58;5.93;;;;;;;20.75;76.90;101598.94;5053213;28;20079;-64
2022/06/18 01:12:50;;;;;;;16.45;5.85;;;;;;;20.67;77.31;101597.31;5049851;28;20087;-64
2022/06/18 01:15:20;;;;;;;17.33;5.80;;;;;;;20.69;77.38;101594.59;5053657;28;20031;-64
2022/06/18 01:17:47;;;;;;;16.60;5.75;;;;;;;20.65;77.84;101587.50;5053264;28;20059;-64
2022/06/18 01:20:14;;;;;;;17.60;6.03;;;;;;;20.52;79.40;101586.97;5053658;28;20071;-63
2022/06/18 01:23:01;;;;;;;18.25;6.03;;;;;;;20.53;77.68;101594.06;5053489;28;20043;-64
2022/06/18 01:25:28;;;;;;;17.13;6.03;;;;;;;20.54;80.39;101585.97;5050241;28;20024;-63
2022/06/18 01:27:55;;;;;;;18.10;6.10;;;;;;;20.46;82.37;101588.00;5053268;28;20040;-64
2022/06/18 01:30:23;;;;;;;18.50;6.55;;;;;;;20.50;81.54;101589.69;5053303;28;20032;-63
2022/06/18 01:32:51;;;;;;;17.42;6.35;;;;;;;20.38;85.93;101590.84;5053387;28;20028;-64
2022/06/18 01:35:18;;;;;;;17.67;6.32;;;;;;;20.47;84.25;101588.88;5052906;28;20091;-63
2022/06/18 01:37:45;;;;;;;17.70;6.20;;;;;;;20.39;83.32;101586.38;5053144;28;20357;-64
2022/06/18 01:40:12;;;;;;;18.70;6.70;;;;;;;20.34;83.46;101588.28;5053146;28;20024;-64
2022/06/18 01:42:45;;;;;;;19.10;6.63;;;;;;;20.24;84.02;101579.59;5053104;28;20033;-63
2022/06/18 01:45:17;;;;;;;18.15;6.60;;;;;;;20.24;84.36;101582.28;5052625;28;20492;-64
2022/06/18 01:47:49;;;;;;;18.88;6.60;;;;;;;20.22;84.73;101583.25;5053294;28;20029;-64
2022/06/18 01:50:39;;;;;;;18.67;6.43;;;;;;;20.13;83.54;101587.91;5052758;28;20024;-63
2022/06/18 01:53:16;;;;;;;18.92;6.97;;;;;;;20.05;85.99;101586.31;5050945;28;20024;-63
2022/06/18 01:55:50;;;;;;;18.38;7.07;;;;;;;20.01;87.46;101590.88;5052868;28;20028;-63
2022/06/18 01:58:21;;;;;;;19.25;7.20;;;;;;;19.95;87.54;101581.16;5052951;28;20051;-63
2022/06/18 02:00:51;;;;;;;19.27;7.03;;;;;;;19.95;87.40;101580.28;5052713;28;20074;-63
2022/06/18 02:03:17;;;;;;;18.10;7.07;;;;;;;19.90;87.93;101587.56;5052749;28;20112;-64
2022/06/18 02:05:43;;;;;;;19.35;7.22;;;;;;;19.85;88.57;101575.13;5052375;28;20107;-63
2022/06/18 02:08:10;;;;;;;19.15;7.30;;;;;;;19.81;88.72;101576.09;5052796;28;20144;-63
2022/06/18 02:10:45;;;;;;;19.50;7.13;;;;;;;19.78;89.24;101570.81;5052953;28;20029;-63
2022/06/18 02:13:12;;;;;;;18.38;7.15;;;;;;;19.77;89.81;101570.81;5052401;28;20025;-63
2022/06/18 02:15:43;;;;;;;18.65;7.13;;;;;;;19.67;92.34;101565.69;5052402;28;20033;-63
2022/06/18 02:18:11;;;;;;;19.50;7.13;;;;;;;19.72;92.23;101573.63;5052430;28;20108;-64
2022/06/18 02:20:42;;;;;;;19.98;7.75;;;;;;;19.73;92.66;101574.47;5052459;28;20557;-63
2022/06/18 02:23:07;;;;;;;18.42;7.30;;;;;;;19.74;93.24;101577.13;5053927;28;20037;-63
2022/06/18 02:25:33;;;;;;;19.90;7.75;;;;;;;19.68;92.88;101570.09;5056836;28;20430;-63
2022/06/18 02:28:02;;;;;;;19.77;7.90;;;;;;;19.70;92.81;101572.75;5056986;28;20040;-63
2022/06/18 02:30:35;;;;;;;20.65;7.97;;;;;;;19.72;93.33;101578.97;5056499;28;20029;-63
2022/06/18 02:33:16;;;;;;;20.20;8.20;;;;;;;19.61;93.30;101573.81;5056261;28;20112;-63
2022/06/18 02:35:41;;;;;;;20.65;8.20;;;;;;;19.54;93.84;101572.19;5056584;28;20025;-63
2022/06/18 02:38:16;;;;;;;18.80;7.72;;;;;;;19.56;93.53;101564.16;5056474;28;20491;-63
2022/06/18 02:40:41;;;;;;;21.33;7.88;;;;;;;19.54;95.09;101565.97;5056590;28;20025;-64
2022/06/18 02:43:07;;;;;;;20.48;8.18;;;;;;;19.50;95.21;101571.41;5056025;28;20518;-64
2022/06/18 02:45:34;;;;;;;20.05;8.25;;;;;;;19.52;95.20;101572.22;5056690;28;20064;-63
2022/06/18 02:48:00;;;;;;;21.25;8.48;;;;;;;19.45;96.38;101570.59;5056006;28;20029;-63
2022/06/18 02:50:30;;;;;;;20.63;8.13;;;;;;;19.45;95.65;101565.22;5056186;28;20035;-63
2022/06/18 02:53:02;;;;;;;21.02;8.35;;;;;;;19.41;95.87;101574.28;5056498;28;20033;-63
2022/06/18 02:55:56;;;;;;;20.10;8.27;;;;;;;19.42;93.97;101565.31;5056168;28;20029;-63
2022/06/18 02:58:26;;;;;;;19.73;8.00;;;;;;;19.42;95.44;101564.44;5051937;28;20087;-63
2022/06/18 03:00:55;;;;;;;19.73;8.45;;;;;;;19.40;95.86;101567.16;5052527;28;20028;-63
2022/06/18 03:03:23;;;;;;;20.08;8.07;;;;;;;19.41;95.28;101565.34;5051899;28;20124;-63
2022/06/18 03:05:52;;;;;;;19.10;7.95;;;;;;;19.42;95.27;101565.31;5055887;28;20392;-64
2022/06/18 03:08:19;;;;;;;21.83;8.50;;;;;;;19.36;95.28;101567.25;5056014;28;20025;-63
2022/06/18 03:13:28;;;;;;;20.48;8.32;;;;;;;19.34;95.72;101576.19;5053036;28;20060;-63
2022/06/18 03:15:55;;;;;;;21.08;8.70;;;;;;;19.27;96.65;101577.22;5055869;28;20433;-70
2022/06/18 03:18:24;;;;;;;20.60;8.82;;;;;;;19.22;96.43;101579.13;5051943;28;20024;-63
2022/06/18 03:21:09;;;;;;;20.83;8.80;;;;;;;19.15;98.25;101578.38;5055453;28;20032;-64
2022/06/18 03:23:35;;;;;;;20.67;9.00;;;;;;;19.10;98.66;101579.38;5053505;28;20040;-64
2022/06/18 03:26:00;;;;;;;19.83;8.65;;;;;;;19.13;100.00;101576.63;5055372;28;20021;-64
2022/06/18 03:28:27;;;;;;;20.33;9.10;;;;;;;19.10;100.00;101577.56;5055862;28;20046;-63
2022/06/18 03:30:52;;;;;;;20.33;8.85;;;;;;;19.08;100.00;101576.72;5055401;28;20017;-64
2022/06/18 03:33:18;;;;;;;20.13;9.60;;;;;;;19.07;100.00;101574.06;5055190;28;20376;-63
2022/06/18 03:35:46;;;;;;;20.30;9.50;;;;;;;19.07;100.00;101579.44;5055444;28;20025;-64
2022/06/18 03:38:13;;;;;;;22.02;9.43;;;;;;;19.08;100.00;101575.84;5055112;28;20040;-63
2022/06/18 03:40:38;;;;;;;21.65;9.60;;;;;;;19.05;100.00;101582.13;5055221;28;20029;-64
2022/06/18 03:43:04;;;;;;;20.83;9.57;;;;;;;19.00;100.00;101584.00;5055410;28;20028;-64
2022/06/18 03:45:34;;;;;;;22.30;9.15;;;;;;;19.01;100.00;101585.78;5055267;28;20021;-64
2022/06/18 03:48:00;;;;;;;21.35;9.40;;;;;;;19.08;100.00;101578.53;5055434;28;20028;-64
2022/06/18 03:50:25;;;;;;;22.42;9.77;;;;;;;18.99;100.00;101577.78;5055437;28;20046;-64
2022/06/18 03:52:51;;;;;;;20.70;9.82;;;;;;;18.99;100.00;101576.91;5055131;28;20025;-64
2022/06/18 03:55:17;;;;;;;21.65;9.57;;;;;;;19.02;100.00;101576.84;5055130;28;20024;-64
2022/06/18 03:57:43;;;;;;;21.85;9.93;;;;;;;18.98;100.00;101575.13;5055043;28;20029;-63
2022/06/18 04:00:15;;;;;;;20.55;9.35;;;;;;;19.01;100.00;101576.88;5054731;28;20391;-63
2022/06/18 04:02:40;;;;;;;;;;;;;;;19.02;100.00;101570.59;5055408;28;20028;-63
2022/06/18 04:05:06;;;;;;;22.70;9.75;;;;;;;18.99;100.00;101577.78;5054880;28;19963;-63
2022/06/18 04:07:31;;;;;;;22.33;10.02;;;;;;;18.98;100.00;101572.44;5054384;28;20044;-63
2022/06/18 04:10:01;;;;;;;23.13;10.23;;;;;;;18.98;100.00;101567.09;5054550;28;20036;-63
2022/06/18 04:12:27;;;;;;;21.70;9.65;;;;;;;19.02;100.00;101560.78;5054691;28;20453;-63
2022/06/18 04:14:52;;;;;;;19.90;9.90;;;;;;;19.04;100.00;101561.63;5053284;28;20029;-63
2022/06/18 04:17:17;;;;;;;20.98;10.07;;;;;;;19.12;100.00;101559.69;5054439;28;20017;-63
2022/06/18 04:19:42;;;;;;;21.35;10.32;;;;;;;19.18;100.00;101561.34;5054583;28;20508;-63
2022/06/18 04:22:08;;;;;;;22.33;10.02;;;;;;;19.21;100.00;101557.69;5054372;28;20025;-63
2022/06/18 04:24:34;;;;;;;21.42;9.82;;;;;;;19.22;100.00;101557.69;5054345;28;20069;-63
2022/06/18 04:27:00;;;;;;;21.05;10.02;;;;;;;19.31;100.00;101553.94;5054234;28;20025;-63
2022/06/18 04:29:25;;;;;;;21.25;9.85;;;;;;;19.31;100.00;101568.22;5054311;28;20108;-63
2022/06/18 04:31:51;;;;;;;21.90;10.40;;;;;;;19.29;100.00;101564.66;5050365;28;20028;-63
2022/06/18 04:34:16;;;;;;;20.38;10.10;;;;;;;19.32;100.00;101563.72;5054344;28;20432;-63
2022/06/18 04:36:42;;;;;;;22.70;10.60;;;;;;;19.33;100.00;101568.19;5054382;28;20029;-63
2022/06/18 04:39:08;;;;;;;22.98;10.68;;;;;;;19.36;100.00;101560.06;5054077;28;20032;-63
2022/06/18 04:41:34;;;;;;;23.50;10.40;;;;;;;19.40;100.00;101561.78;5054339;28;20108;-63
2022/06/18 04:43:59;;;;;;;21.08;10.43;;;;;;;19.42;100.00;101561.75;5053917;28;20044;-63
2022/06/18 04:46:24;;;;;;;21.13;11.02;;;;;;;19.42;100.00;101565.31;5053755;28;20519;-63
2022/06/18 04:48:50;;;;;;;20.85;10.30;;;;;;;19.49;100.00;101556.22;5053892;28;20025;-63
2022/06/18 04:51:16;;;;;;;21.58;10.60;;;;;;;19.56;100.00;101564.16;5053871;28;20031;-63
2022/06/18 04:53:42;;;;;;;21.63;10.85;;;;;;;19.57;100.00;101568.56;5053898;28;20024;-63
2022/06/18 04:56:08;;;;;;;21.85;11.13;;;;;;;19.60;100.00;101561.38;5054053;28;20450;-63
2022/06/18 04:58:33;;;;;;;21.48;11.10;;;;;;;19.65;100.00;101561.25;5053929;28;20052;-63
2022/06/18 05:00:59;;;;;;;22.67;11.55;;;;;;;19.74;100.00;101571.75;5053795;28;20021;-63
2022/06/18 05:03:25;;;;;;;23.27;11.50;;;;;;;19.79;100.00;101563.63;5053926;28;20021;-63
2022/06/18 05:05:52;;;;;;;22.95;12.02;;;;;;;19.80;100.00;101566.28;5054046;28;20067;-63
2022/06/18 05:08:17;;;;;;;24.02;11.50;;;;;;;19.82;100.00;101561.78;5053756;28;20033;-63
2022/06/18 05:10:43;;;;;;;24.13;11.50;;;;;;;19.86;100.00;101565.28;5053334;28;20082;-63
2022/06/18 05:13:09;;;;;;;22.55;11.85;;;;;;;19.91;100.00;101567.88;5053616;28;20084;-63
2022/06/18 05:15:35;;;;;;;23.10;11.73;;;;;;;19.99;100.00;101565.88;5053384;28;20027;-63
2022/06/18 05:18:01;;;;;;;23.55;12.10;;;;;;;20.03;100.00;101564.88;5053554;28;20115;-64
2022/06/18 05:20:26;;;;;;;23.60;12.55;;;;;;;20.09;99.88;101578.16;5053576;28;20025;-64
2022/06/18 05:22:52;;;;;;;23.60;12.23;;;;;;;20.13;99.31;101569.09;5053210;28;20456;-63
2022/06/18 05:25:19;;;;;;;22.38;12.13;;;;;;;20.22;98.73;101578.75;5053070;28;20032;-63
2022/06/18 05:27:45;;;;;;;22.90;11.60;;;;;;;20.28;100.00;101577.72;5053349;28;20031;-62
2022/06/18 05:30:14;;;;;;;24.00;12.70;;;;;;;20.37;100.00;101578.38;5053007;28;20032;-64
2022/06/18 05:32:41;;;;;;;23.70;12.80;;;;;;;20.47;100.00;101579.00;5053234;28;20033;-63
2022/06/18 05:35:08;;;;;;;24.00;12.50;;;;;;;20.53;99.20;101586.94;5053173;28;20037;-63
2022/06/18 05:37:34;;;;;;;23.30;13.15;;;;;;;20.59;100.00;101588.56;5052979;28;20068;-63
2022/06/18 05:40:00;;;;;;;25.15;13.20;;;;;;;20.61;99.05;101596.59;5053134;28;20115;-63
2022/06/18 05:42:25;;;;;;;23.48;13.07;;;;;;;20.65;100.00;101595.56;5053107;28;20490;-63
2022/06/18 05:44:51;;;;;;;23.55;13.27;;;;;;;20.65;100.00;101588.41;5052646;28;20049;-64
2022/06/18 05:47:22;;;;;;;23.48;13.25;;;;;;;20.70;97.40;101593.69;5053076;28;20036;-63
2022/06/18 05:49:48;;;;;;;24.65;13.48;;;;;;;20.67;98.14;101591.09;5052956;28;20111;-64
2022/06/18 05:52:14;;;;;;;24.77;13.30;;;;;;;20.71;96.43;101598.16;5052742;28;20025;-64
2022/06/18 05:54:39;;;;;;;23.58;12.82;;;;;;;20.79;97.18;101585.38;5051339;28;20090;-63
2022/06/18 05:57:05;;;;;;;24.67;12.52;;;;;;;20.84;95.74;101588.84;5052595;28;20033;-64
2022/06/18 05:59:31;;;;;;;23.60;13.10;;;;;;;20.88;97.15;101593.22;5052641;28;20021;-64
2022/06/18 06:01:57;;;;;;;24.63;12.73;;;;;;;20.97;95.39;101588.47;5052562;28;20039;-64
2022/06/18 06:04:23;;;;;;;24.08;12.30;;;;;;;21.06;92.45;101594.50;5052823;28;20029;-64
2022/06/18 06:06:51;;;;;;;25.52;12.55;;;;;;;21.15;91.68;101590.69;5052761;28;20032;-63
2022/06/18 06:11:28;;;;;;;23.17;12.10;;;;;;;21.22;90.55;101586.88;5052447;28;20492;-63
2022/06/18 06:12:03;;;;;;;23.60;11.35;;;;;;;21.31;86.60;101584.88;5052479;28;20392;-63
2022/06/18 06:14:29;;;;;;;23.35;11.35;;;;;;;21.37;83.84;101582.00;5052687;28;20108;-63
2022/06/18 06:16:54;;;;;;;25.40;11.88;;;;;;;21.42;85.89;101571.97;5051338;28;20017;-63
2022/06/18 06:19:19;;;;;;;24.35;11.85;;;;;;;21.48;83.24;101562.84;5052469;28;20112;-63
2022/06/18 06:21:45;;;;;;;25.35;11.13;;;;;;;21.56;82.18;101567.09;5052552;28;20398;-63
2022/06/18 06:24:10;;;;;;;25.92;11.35;;;;;;;21.62;80.82;101571.41;5052420;28;20044;-64
2022/06/18 06:26:35;;;;;;;24.02;10.93;;;;;;;21.69;80.45;101566.75;5052395;28;20025;-64
2022/06/18 06:29:01;;;;;;;25.10;11.30;;;;;;;21.72;78.35;101572.03;5052466;28;20025;-63
2022/06/18 06:31:27;;;;;;;24.77;11.68;;;;;;;21.75;79.51;101572.78;5052492;28;20031;-64
2022/06/18 06:33:52;;;;;;;23.33;10.93;;;;;;;21.89;80.39;101579.59;5048279;28;20025;-63
2022/06/18 06:36:17;;;;;;;23.27;11.25;;;;;;;21.99;77.59;101572.06;5052428;28;20060;-63
2022/06/18 06:38:43;;;;;;;24.05;11.15;;;;;;;22.03;77.06;101573.75;5052253;28;20025;-63
2022/06/18 06:41:21;;;;;;;23.70;10.57;;;;;;;22.07;76.64;101578.97;5052645;28;20021;-63
2022/06/18 06:43:46;;;;;;;24.02;11.15;;;;;;;22.14;75.14;101568.91;5052264;28;20083;-63
2022/06/18 06:46:13;;;;;;;24.98;11.30;;;;;;;22.20;76.60;101567.81;5052179;28;20028;-63
2022/06/18 06:48:39;;;;;;;26.75;11.48;;;;;;;22.33;76.28;101571.91;5052356;28;20025;-63
2022/06/18 06:51:10;;;;;;;24.50;11.00;;;;;;;22.46;75.25;101575.06;5052284;28;20032;-63
2022/06/18 06:53:36;;;;;;;25.92;11.80;;;;;;;22.50;71.95;101570.44;5052247;28;20048;-64
2022/06/18 06:58:44;;;;;;;25.83;11.63;;;;;;;22.58;73.81;101569.22;5052427;28;20043;-64
2022/06/18 07:01:10;;;;;;;24.88;10.90;;;;;;;22.61;75.91;101571.81;5052419;28;20430;-64
2022/06/18 07:03:35;;;;;;;23.60;11.55;;;;;;;22.73;76.22;101577.72;5052195;28;20025;-64
2022/06/18 07:06:01;;;;;;;25.95;11.70;;;;;;;22.78;73.26;101570.38;5052138;28;20480;-64
2022/06/18 07:08:27;;;;;;;26.15;11.93;;;;;;;22.89;73.42;101576.25;5052637;28;20066;-64
2022/06/18 07:10:53;;;;;;;26.35;11.07;;;;;;;22.91;70.26;101579.78;5051853;28;20025;-64
2022/06/18 07:13:19;;;;;;;24.13;10.77;;;;;;;22.93;71.28;101583.28;5055681;28;20063;-63
2022/06/18 07:15:46;;;;;;;24.55;12.00;;;;;;;22.94;70.37;101579.66;5055777;28;20429;-64
2022/06/18 07:18:18;;;;;;;25.27;11.90;;;;;;;23.02;70.52;101582.06;5055825;28;20371;-64
2022/06/18 07:20:44;;;;;;;25.38;11.32;;;;;;;23.10;69.75;101576.41;5055311;28;20029;-64
2022/06/18 07:23:10;;;;;;;25.30;11.40;;;;;;;23.24;71.30;101584.91;5055889;28;20144;-64
2022/06/18 07:25:35;;;;;;;23.80;10.82;;;;;;;23.32;70.73;101577.41;5055448;28;20021;-64
2022/06/18 07:28:00;;;;;;;24.65;11.27;;;;;;;23.40;70.88;101578.94;5055374;28;20022;-63
2022/06/18 07:30:26;;;;;;;24.00;10.75;;;;;;;23.45;69.52;101582.34;5055548;28;20037;-63
2022/06/18 07:32:52;;;;;;;24.67;10.60;;;;;;;23.47;69.22;101575.06;5055308;28;20029;-63
2022/06/18 07:35:23;;;;;;;21.98;10.13;;;;;;;23.61;69.70;101572.72;5055496;28;20040;-63
2022/06/18 07:37:49;;;;;;;22.80;9.38;;;;;;;23.77;69.55;101569.44;5055366;28;20353;-63
2022/06/18 07:40:14;;;;;;;23.55;9.55;;;;;;;23.91;69.16;101567.09;5055436;28;20039;-63
2022/06/18 07:42:42;;;;;;;23.25;9.98;;;;;;;24.04;68.30;101570.16;5055383;28;20464;-63
2022/06/18 07:45:20;;;;;;;23.48;9.95;;;;;;;24.15;66.51;101572.44;5055036;28;20049;-63
2022/06/18 07:47:46;;;;;;;22.65;10.68;;;;;;;24.22;64.11;101568.53;5055063;28;20079;-64
2022/06/18 07:50:12;;;;;;;23.42;10.15;;;;;;;24.36;64.18;101570.63;5054857;28;20025;-63
2022/06/18 07:52:38;;;;;;;26.52;11.00;;;;;;;24.36;66.80;101571.53;5055326;28;20422;-64
2022/06/18 07:55:05;;;;;;;24.48;11.00;;;;;;;24.46;63.77;101568.44;5054954;28;20029;-64
2022/06/18 07:57:31;;;;;;;23.35;10.48;;;;;;;24.62;66.18;101561.44;5055088;28;20021;-64
2022/06/18 07:59:57;;;;;;;24.23;11.30;;;;;;;24.77;65.58;101559.91;5054933;28;20426;-63
2022/06/18 08:02:23;;;;;;;25.20;11.30;;;;;;;24.85;64.59;101559.56;5055054;28;20029;-64
2022/06/18 08:04:48;;;;;;;23.80;10.18;;;;;;;25.04;66.74;101557.78;5054503;28;20063;-64
2022/06/18 08:07:13;;;;;;;24.23;10.07;;;;;;;25.10;63.07;101553.06;5054838;28;20082;-63
2022/06/18 08:09:38;;;;;;;23.65;10.00;;;;;;;25.21;61.95;101548.91;5053614;28;20037;-63
2022/06/18 08:12:05;;;;;;;23.10;10.52;;;;;;;25.39;61.03;101549.91;5054641;28;20530;-64
2022/06/18 08:14:30;;;;;;;31.52;12.13;;;;;;;25.44;61.76;101543.41;5054747;28;20040;-64
2022/06/18 08:16:56;;;;;;;25.63;11.23;;;;;;;25.62;60.94;101547.09;5054566;28;20025;-64
2022/06/18 08:19:21;;;;;;;26.67;11.73;;;;;;;25.73;62.09;101539.28;5054466;28;20383;-63
2022/06/18 08:21:47;;;;;;;24.90;11.70;;;;;;;25.84;60.49;101536.09;5053511;28;20045;-64
2022/06/18 08:24:19;;;;;;;30.00;11.20;;;;;;;25.84;60.44;101538.78;5054492;28;20457;-64
2022/06/18 08:26:45;;;;;;;24.45;11.65;;;;;;;26.06;61.04;101533.22;5054403;28;20040;-63
2022/06/18 08:29:14;;;;;;;22.63;10.40;;;;;;;26.10;59.73;101534.81;5054676;28;20448;-63
2022/06/18 08:31:40;;;;;;;27.00;9.80;;;;;;;26.13;56.69;101526.53;5054130;28;20382;-64
2022/06/18 08:34:05;;;;;;;23.80;10.25;;;;;;;26.21;55.22;101523.44;5054005;28;20112;-63
2022/06/18 08:36:33;;;;;;;22.80;9.10;;;;;;;26.25;55.21;101514.19;5054208;28;20017;-64
2022/06/18 08:38:58;;;;;;;23.92;9.23;;;;;;;26.48;53.87;101523.84;5054408;28;20022;-63
2022/06/18 08:41:49;;;;;;;23.30;10.40;;;;;;;26.41;54.91;101526.00;5050038;28;20025;-63
2022/06/18 08:44:41;;;;;;;22.40;9.20;;;;;;;26.58;55.16;101526.97;5052644;28;20056;-64
2022/06/18 08:47:25;;;;;;;23.23;9.82;;;;;;;26.60;54.19;101531.31;5051648;28;20028;-63
2022/06/18 08:50:02;;;;;;;25.38;10.13;;;;;;;26.64;55.08;101532.06;5054097;28;20376;-64
2022/06/18 08:52:33;;;;;;;22.90;10.23;;;;;;;26.87;54.80;101538.13;5050205;28;20025;-64
2022/06/18 08:55:28;;;;;;;24.80;10.10;;;;;;;27.06;53.18;101540.75;5050647;28;20136;-64
2022/06/18 08:58:35;;;;;;;24.08;9.80;;;;;;;27.50;53.63;101536.56;5053707;28;20484;-64
2022/06/18 09:01:05;;;;;;;23.65;9.70;;;;;;;27.68;50.57;101530.06;5050529;28;20021;-64
2022/06/18 09:03:46;;;;;;;24.88;9.70;;;;;;;27.83;54.37;101537.34;5053774;28;20032;-64
2022/06/18 09:06:26;;;;;;;25.42;10.18;;;;;;;27.92;51.96;101540.50;5053779;28;20029;-64
2022/06/18 09:09:04;;;;;;;23.52;9.60;;;;;;;28.07;52.34;101536.91;5053549;28;20104;-64
2022/06/18 09:11:35;;;;;;;25.20;10.52;;;;;;;28.35;52.44;101540.69;5050313;28;20468;-64
2022/06/18 09:14:10;;;;;;;27.42;10.88;;;;;;;28.44;52.01;101547.44;5053672;28;20048;-64
2022/06/18 09:16:57;;;;;;;23.83;9.38;;;;;;;28.67;50.59;101548.78;5053668;28;20025;-64
2022/06/18 09:19:26;;;;;;;26.33;10.43;;;;;;;28.80;49.20;101544.34;5053374;28;20029;-64
2022/06/18 09:21:53;;;;;;;22.92;10.00;;;;;;;28.79;49.60;101544.44;5053522;28;20017;-64
2022/06/18 09:24:24;;;;;;;21.95;8.93;;;;;;;28.79;48.46;101537.16;5053281;28;20025;-64
2022/06/18 09:26:54;;;;;;;22.15;8.80;;;;;;;28.86;48.69;101552.13;5053222;28;20119;-64
2022/06/18 09:29:26;;;;;;;23.13;9.43;;;;;;;28.93;49.07;101546.31;5053023;28;20086;-64
2022/06/18 09:32:10;;;;;;;25.13;9.30;;;;;;;29.07;48.29;101549.06;5053025;28;20111;-64
2022/06/18 09:34:45;;;;;;;23.48;8.98;;;;;;;29.15;45.36;101541.25;5050465;28;20111;-65
2022/06/18 09:37:25;;;;;;;24.65;9.63;;;;;;;29.18;46.07;101541.09;5051723;28;20021;-65
2022/06/18 09:39:57;;;;;;;26.38;9.40;;;;;;;29.33;46.06;101544.69;5053242;28;20025;-64
2022/06/18 09:42:32;;;;;;;;;;;;;;;29.68;46.90;101530.66;5053536;28;20082;-64
2022/06/18 09:45:06;;;;;;;25.50;9.80;;;;;;;29.83;45.69;101526.06;5052594;28;20398;-64
2022/06/18 09:47:39;;;;;;;25.35;9.85;;;;;;;29.72;45.20;101523.13;5049633;28;20037;-64
2022/06/18 09:50:16;;;;;;;23.40;9.50;;;;;;;29.98;44.41;101534.19;5052600;28;20060;-63
2022/06/18 09:52:48;;;;;;;22.80;9.07;;;;;;;30.22;44.31;101521.63;5052834;28;20031;-63
2022/06/18 09:55:32;;;;;;;24.27;9.18;;;;;;;30.36;44.73;101523.41;5052938;28;20033;-64
2022/06/18 09:57:59;;;;;;;22.65;9.27;;;;;;;30.72;42.65;101515.53;5049200;28;20494;-64
2022/06/18 10:00:30;;;;;;;25.33;9.98;;;;;;;30.66;42.57;101521.41;5048346;28;20032;-64
2022/06/18 10:03:12;;;;;;;25.55;9.35;;;;;;;30.74;43.15;101516.28;5048957;28;20082;-64
2022/06/18 10:08:32;;;;;;;23.25;8.70;;;;;;;32.05;39.79;101514.06;5049400;28;20036;-64
2022/06/18 10:11:07;;;;;;;21.48;8.18;;;;;;;33.50;38.29;101514.50;5052554;28;20128;-64
2022/06/18 10:13:39;;;;;;;25.73;9.57;;;;;;;33.93;34.88;101514.69;5049692;28;20021;-64
2022/06/18 10:16:12;;;;;;;24.35;9.57;;;;;;;33.96;36.00;101503.44;5052508;28;20116;-64
2022/06/18 10:18:56;;;;;;;25.63;9.52;;;;;;;34.37;35.30;101510.91;5052304;28;20403;-64
2022/06/18 10:22:11;;;;;;;24.20;9.65;;;;;;;34.74;34.39;101515.91;5052573;28;20025;-64
2022/06/18 10:24:47;;;;;;;26.13;9.63;;;;;;;34.86;34.15;101507.63;5037225;28;20490;-64
2022/06/18 10:27:30;;;;;;;24.20;9.55;;;;;;;36.05;32.11;101505.97;5040021;28;20135;-64
2022/06/18 10:30:24;;;;;;;23.48;9.30;;;;;;;36.69;31.70;101505.50;5041786;28;20514;-64
2022/06/18 10:33:28;;;;;;;23.92;8.90;;;;;;;37.04;31.57;101506.72;5040544;28;20488;-64
2022/06/18 10:35:59;;;;;;;26.27;9.70;;;;;;;37.29;29.89;101503.28;5002267;28;20034;-64
2022/06/18 10:38:33;;;;;;;23.95;9.38;;;;;;;37.01;30.34;101502.38;4999066;28;20211;-64
2022/06/18 10:41:22;;;;;;;25.73;9.40;;;;;;;37.80;30.30;101498.19;5006348;28;20030;-64
2022/06/18 10:43:50;;;;;;;24.23;9.25;;;;;;;38.28;28.43;101495.22;5004462;28;20050;-64
2022/06/18 10:46:20;;;;;;;24.25;8.38;;;;;;;38.73;29.31;101488.66;5004892;28;20440;-65
2022/06/18 10:48:52;;;;;;;25.35;8.43;;;;;;;39.00;28.53;101481.19;5003892;28;20030;-64
2022/06/18 10:51:20;;;;;;;26.27;8.40;;;;;;;38.99;27.86;101485.03;5005220;28;20042;-65
2022/06/18 10:53:50;;;;;;;24.00;8.27;;;;;;;39.52;27.16;101485.75;5003845;28;20030;-64
2022/06/18 10:56:25;;;;;;;25.42;8.27;;;;;;;39.52;26.78;101481.06;5004812;28;20030;-65
2022/06/18 10:58:57;;;;;;;24.75;8.45;;;;;;;39.22;27.15;101480.66;5028035;28;20036;-65
2022/06/18 11:01:34;;;;;;;;;;;;;;;40.07;26.63;101473.28;5042890;28;20108;-65
2022/06/18 11:04:03;;;;;;;24.52;8.82;;;;;;;39.92;25.06;101465.63;5038716;28;20019;-65
2022/06/18 11:06:30;;;;;;;24.00;8.50;;;;;;;40.87;25.51;101475.25;5038324;28;20038;-65
2022/06/18 11:08:59;;;;;;;26.05;8.23;;;;;;;40.38;25.20;101467.00;5037979;28;20029;-65
2022/06/18 11:11:31;;;;;;;21.67;8.43;;;;;;;40.39;25.79;101468.75;5045670;28;20099;-65
2022/06/18 11:14:27;;;;;;;21.02;7.97;;;;;;;41.17;25.11;101467.19;5051884;28;20111;-65
2022/06/18 11:16:55;;;;;;;24.02;7.90;;;;;;;40.87;24.97;101449.44;5044484;28;20083;-65
2022/06/18 11:19:31;;;;;;;23.20;8.00;;;;;;;41.58;24.55;101452.22;5042283;28;20037;-65
2022/06/18 11:22:07;;;;;;;25.02;8.38;;;;;;;42.08;24.48;101438.88;5037651;28;20516;-65
2022/06/18 11:24:35;;;;;;;22.88;7.80;;;;;;;42.23;23.17;101428.69;5038795;28;20037;-65
2022/06/18 11:27:04;;;;;;;22.77;7.80;;;;;;;42.18;22.93;101435.88;5045129;28;20069;-65
2022/06/18 11:29:40;;;;;;;23.33;7.60;;;;;;;42.76;22.92;101427.78;5037948;28;20120;-65
2022/06/18 11:32:21;;;;;;;22.95;7.53;;;;;;;42.81;22.64;101430.84;5044045;28;20063;-65
2022/06/18 11:34:51;;;;;;;22.47;7.37;;;;;;;43.10;21.92;101421.63;5043493;28;20037;-65
2022/06/18 11:37:21;;;;;;;23.92;7.70;;;;;;;43.54;22.26;101419.78;5042422;28;20024;-66
2022/06/18 11:40:11;;;;;;;23.75;8.05;;;;;;;43.07;21.87;101418.41;5043709;28;20045;-65